createdAt,value
2023-12-29T00:00:50.268Z,-65
2023-12-29T00:03:16.973Z,-65
2023-12-29T00:05:43.705Z,-65
2023-12-29T00:08:10.394Z,-64
2023-12-29T00:10:37.460Z,-65
2023-12-29T00:13:04.326Z,-65
2023-12-29T00:15:31.054Z,-66
2023-12-29T00:17:57.908Z,-65
2023-12-29T00:20:33.707Z,-64
2023-12-29T00:23:07.393Z,-65
2023-12-29T00:25:38.396Z,-65
2023-12-29T00:28:05.863Z,-64
2023-12-29T00:30:47.336Z,-64
2023-12-29T00:33:19.412Z,-64
2023-12-29T00:35:46.365Z,-64
2023-12-29T00:38:13.061Z,-64
2023-12-29T00:40:39.643Z,-64
2023-12-29T00:43:06.696Z,-65
2023-12-29T00:45:37.444Z,-64
2023-12-29T00:48:05.355Z,-64
2023-12-29T00:50:32.356Z,-65
2023-12-29T00:52:58.954Z,-64
2023-12-29T00:55:25.924Z,-64
2023-12-29T00:57:52.654Z,-64
2023-12-29T01:00:19.740Z,-64
2023-12-29T01:02:47.054Z,-64
2023-12-29T01:05:19.154Z,-65
2023-12-29T01:07:46.327Z,-65
2023-12-29T01:10:13.167Z,-64
2023-12-29T01:12:40.381Z,-64
2023-12-29T01:15:07.257Z,-64
2023-12-29T01:17:34.212Z,-65
2023-12-29T01:20:01.012Z,-65
2023-12-29T01:22:28.161Z,-66
2023-12-29T01:24:54.804Z,-65
2023-12-29T01:27:21.573Z,-65
2023-12-29T01:29:48.544Z,-65
2023-12-29T01:32:15.336Z,-65
2023-12-29T01:34:42.556Z,-65
2023-12-29T01:37:09.619Z,-65
2023-12-29T01:39:36.859Z,-64
2023-12-29T01:42:03.662Z,-64
2023-12-29T01:44:30.335Z,-64
2023-12-29T01:47:00.459Z,-65
2023-12-29T01:49:27.876Z,-65
2023-12-29T01:51:58.423Z,-65
2023-12-29T01:54:28.732Z,-65
2023-12-29T01:56:58.013Z,-65
2023-12-29T01:59:27.169Z,-65
2023-12-29T02:01:57.319Z,-64
2023-12-29T02:04:26.444Z,-65
2023-12-29T02:06:53.426Z,-65
2023-12-29T02:09:20.158Z,-65
2023-12-29T02:11:47.875Z,-65
2023-12-29T02:14:19.624Z,-65
2023-12-29T02:17:04.769Z,-65
2023-12-29T02:19:50.892Z,-66
2023-12-29T02:22:17.924Z,-64
2023-12-29T02:24:48.567Z,-64
2023-12-29T02:27:49.602Z,-64
2023-12-29T02:30:27.515Z,-64
2023-12-29T02:32:59.807Z,-64
2023-12-29T02:35:34.300Z,-63
2023-12-29T02:38:01.426Z,-63
2023-12-29T02:40:28.408Z,-65
2023-12-29T02:42:55.730Z,-63
2023-12-29T02:45:22.444Z,-66
2023-12-29T02:47:50.224Z,-65
2023-12-29T02:50:17.286Z,-66
2023-12-29T02:52:43.919Z,-66
2023-12-29T02:55:10.699Z,-66
2023-12-29T02:57:37.945Z,-66
2023-12-29T03:00:06.155Z,-66
2023-12-29T03:02:34.203Z,-63
2023-12-29T03:05:01.595Z,-63
2023-12-29T03:07:28.243Z,-63
2023-12-29T03:09:54.968Z,-63
2023-12-29T03:12:21.653Z,-63
2023-12-29T03:14:48.628Z,-62
2023-12-29T03:17:15.460Z,-62
2023-12-29T03:19:42.916Z,-63
2023-12-29T03:22:10.759Z,-62
2023-12-29T03:24:38.656Z,-63
2023-12-29T03:27:05.548Z,-63
2023-12-29T03:29:32.655Z,-63
2023-12-29T03:31:59.297Z,-62
2023-12-29T03:34:26.040Z,-63
2023-12-29T03:36:53.117Z,-63
2023-12-29T03:39:20.019Z,-63
2023-12-29T03:41:47.106Z,-63
2023-12-29T03:44:13.808Z,-63
2023-12-29T03:46:40.515Z,-62
2023-12-29T03:49:07.353Z,-63
2023-12-29T03:51:34.348Z,-62
2023-12-29T03:54:01.029Z,-63
2023-12-29T03:56:27.804Z,-64
2023-12-29T03:58:54.751Z,-65
2023-12-29T04:01:21.498Z,-65
2023-12-29T04:03:48.372Z,-65
2023-12-29T04:06:15.130Z,-64
2023-12-29T04:08:41.719Z,-64
2023-12-29T04:11:08.705Z,-65
2023-12-29T04:13:35.387Z,-66
2023-12-29T04:16:02.046Z,-66
2023-12-29T04:18:30.559Z,-66
2023-12-29T04:20:57.339Z,-66
2023-12-29T04:23:24.257Z,-65
2023-12-29T04:25:50.831Z,-65
2023-12-29T04:28:17.478Z,-65
2023-12-29T04:30:44.273Z,-65
2023-12-29T04:33:14.248Z,-65
2023-12-29T04:35:41.279Z,-65
2023-12-29T04:38:08.094Z,-65
2023-12-29T04:40:35.445Z,-65
2023-12-29T04:43:02.042Z,-65
2023-12-29T04:45:28.676Z,-65
2023-12-29T04:47:55.298Z,-65
2023-12-29T04:50:22.003Z,-65
2023-12-29T04:52:49.962Z,-66
2023-12-29T04:55:16.752Z,-63
2023-12-29T04:57:43.490Z,-65
2023-12-29T05:00:11.154Z,-66
2023-12-29T05:02:37.757Z,-65
2023-12-29T05:05:05.084Z,-65
2023-12-29T05:07:32.106Z,-65
2023-12-29T05:09:58.716Z,-64
2023-12-29T05:12:25.825Z,-65
2023-12-29T05:14:52.469Z,-64
2023-12-29T05:17:19.093Z,-64
2023-12-29T05:19:45.760Z,-64
2023-12-29T05:22:16.770Z,-64
2023-12-29T05:24:43.931Z,-64
2023-12-29T05:27:11.278Z,-64
2023-12-29T05:29:37.887Z,-64
2023-12-29T05:32:06.092Z,-64
2023-12-29T05:34:32.822Z,-66
2023-12-29T05:36:59.929Z,-64
2023-12-29T05:39:26.635Z,-64
2023-12-29T05:41:53.277Z,-64
2023-12-29T05:44:19.956Z,-64
2023-12-29T05:46:49.510Z,-64
2023-12-29T05:49:16.253Z,-64
2023-12-29T05:51:45.459Z,-64
2023-12-29T05:54:12.199Z,-64
2023-12-29T05:56:41.407Z,-64
2023-12-29T05:59:08.121Z,-64
2023-12-29T06:01:34.990Z,-64
2023-12-29T06:04:01.825Z,-64
2023-12-29T06:06:29.037Z,-64
2023-12-29T06:08:56.008Z,-64
2023-12-29T06:11:22.688Z,-65
2023-12-29T06:13:49.781Z,-65
2023-12-29T06:16:22.190Z,-65
2023-12-29T06:18:49.350Z,-65
2023-12-29T06:21:16.188Z,-65
2023-12-29T06:23:42.874Z,-65
2023-12-29T06:26:24.281Z,-65
2023-12-29T06:28:51.280Z,-65
2023-12-29T06:31:19.115Z,-65
2023-12-29T06:33:46.248Z,-65
2023-12-29T06:36:13.687Z,-64
2023-12-29T06:38:40.352Z,-65
2023-12-29T06:41:07.158Z,-65
2023-12-29T06:43:33.934Z,-65
2023-12-29T06:46:01.158Z,-64
2023-12-29T06:48:27.984Z,-65
2023-12-29T06:50:54.764Z,-64
2023-12-29T06:53:21.794Z,-64
2023-12-29T06:55:48.591Z,-64
2023-12-29T06:58:15.436Z,-64
2023-12-29T07:00:44.085Z,-65
2023-12-29T07:03:14.707Z,-64
2023-12-29T07:05:41.536Z,-65
2023-12-29T07:08:08.256Z,-64
2023-12-29T07:10:34.932Z,-65
2023-12-29T07:13:01.734Z,-67
2023-12-29T07:15:28.459Z,-65
2023-12-29T07:17:55.532Z,-65
2023-12-29T07:20:22.803Z,-65
2023-12-29T07:22:49.441Z,-65
2023-12-29T07:25:16.440Z,-64
2023-12-29T07:27:43.727Z,-64
2023-12-29T07:30:11.687Z,-64
2023-12-29T07:32:38.756Z,-64
2023-12-29T07:35:06.447Z,-64
2023-12-29T07:37:33.191Z,-64
2023-12-29T07:40:00.079Z,-64
2023-12-29T07:42:26.784Z,-64
2023-12-29T07:44:53.432Z,-64
2023-12-29T07:47:20.065Z,-64
2023-12-29T07:49:47.156Z,-65
2023-12-29T07:52:14.393Z,-64
2023-12-29T07:54:41.159Z,-64
2023-12-29T07:57:08.252Z,-65
2023-12-29T07:59:34.995Z,-64
2023-12-29T08:02:01.916Z,-65
2023-12-29T08:04:28.614Z,-65
2023-12-29T08:06:55.286Z,-65
2023-12-29T08:09:25.280Z,-65
2023-12-29T08:11:51.943Z,-64
2023-12-29T08:14:18.648Z,-64
2023-12-29T08:16:45.685Z,-64
2023-12-29T08:19:12.398Z,-64
2023-12-29T08:21:39.509Z,-64
2023-12-29T08:24:06.474Z,-65
2023-12-29T08:26:33.263Z,-66
2023-12-29T08:28:59.886Z,-64
2023-12-29T08:31:28.121Z,-64
2023-12-29T08:33:54.845Z,-64
2023-12-29T08:36:22.408Z,-64
2023-12-29T08:38:49.177Z,-64
2023-12-29T08:41:16.294Z,-63
2023-12-29T08:43:43.203Z,-64
2023-12-29T08:46:09.902Z,-64
2023-12-29T08:48:36.977Z,-64
2023-12-29T08:51:04.069Z,-65
2023-12-29T08:53:35.191Z,-64
2023-12-29T08:56:02.840Z,-64
2023-12-29T08:58:32.501Z,-65
2023-12-29T09:00:59.719Z,-64
2023-12-29T09:03:26.388Z,-64
2023-12-29T09:05:53.053Z,-65
2023-12-29T09:08:19.733Z,-65
2023-12-29T09:10:46.476Z,-67
2023-12-29T09:13:13.218Z,-67
2023-12-29T09:15:40.536Z,-68
2023-12-29T09:18:07.786Z,-66
2023-12-29T09:20:35.206Z,-66
2023-12-29T09:23:01.917Z,-69
2023-12-29T09:25:29.449Z,-68
2023-12-29T09:27:56.529Z,-68
2023-12-29T09:30:23.188Z,-67
2023-12-29T09:32:49.906Z,-67
2023-12-29T09:35:17.506Z,-65
2023-12-29T09:37:45.112Z,-65
2023-12-29T09:40:12.302Z,-66
2023-12-29T09:42:40.169Z,-69
2023-12-29T09:45:11.952Z,-68
2023-12-29T09:47:41.115Z,-67
2023-12-29T09:50:14.926Z,-67
2023-12-29T09:52:42.087Z,-66
2023-12-29T09:55:11.690Z,-68
2023-12-29T09:57:41.632Z,-68
2023-12-29T10:00:12.911Z,-69
2023-12-29T10:02:39.980Z,-68
2023-12-29T10:05:07.138Z,-69
2023-12-29T10:07:39.026Z,-69
2023-12-29T10:10:07.921Z,-69
2023-12-29T10:12:38.308Z,-69
2023-12-29T10:15:16.810Z,-69
2023-12-29T10:18:04.649Z,-70
2023-12-29T10:20:46.427Z,-69
2023-12-29T10:23:20.638Z,-68
2023-12-29T10:25:49.642Z,-68
2023-12-29T10:28:18.894Z,-70
2023-12-29T10:30:45.749Z,-68
2023-12-29T10:33:20.624Z,-68
2023-12-29T10:36:05.692Z,-67
2023-12-29T10:38:32.737Z,-69
2023-12-29T10:41:19.970Z,-68
2023-12-29T10:43:53.781Z,-67
2023-12-29T10:46:22.379Z,-70
2023-12-29T10:48:49.831Z,-69
2023-12-29T10:51:16.828Z,-67
2023-12-29T10:53:59.393Z,-67
2023-12-29T10:56:26.062Z,-69
2023-12-29T10:59:05.932Z,-68
2023-12-29T11:01:35.646Z,-69
2023-12-29T11:04:05.492Z,-68
2023-12-29T11:06:52.755Z,-68
2023-12-29T11:09:35.307Z,-68
2023-12-29T11:12:04.175Z,-68
2023-12-29T11:14:34.369Z,-68
2023-12-29T11:17:02.276Z,-68
2023-12-29T11:19:29.566Z,-68
2023-12-29T11:21:57.362Z,-69
2023-12-29T11:24:34.850Z,-67
2023-12-29T11:27:08.504Z,-68
2023-12-29T11:29:36.811Z,-68
2023-12-29T11:32:07.496Z,-71
2023-12-29T11:34:40.410Z,-67
2023-12-29T11:37:31.864Z,-68
2023-12-29T11:40:12.451Z,-68
2023-12-29T11:42:41.874Z,-70
2023-12-29T11:45:32.490Z,-68
2023-12-29T11:48:04.043Z,-68
2023-12-29T11:50:34.671Z,-65
2023-12-29T11:53:02.321Z,-64
2023-12-29T11:55:31.748Z,-65
2023-12-29T11:57:59.293Z,-64
2023-12-29T12:00:48.756Z,-65
2023-12-29T12:03:33.744Z,-66
2023-12-29T12:06:05.709Z,-64
2023-12-29T12:08:33.735Z,-65
2023-12-29T12:11:40.545Z,-64
2023-12-29T12:14:07.133Z,-63
2023-12-29T12:16:46.879Z,-64
2023-12-29T12:19:14.418Z,-64
2023-12-29T12:21:42.095Z,-64
2023-12-29T12:24:09.366Z,-64
2023-12-29T12:26:36.451Z,-64
2023-12-29T12:29:03.650Z,-65
2023-12-29T12:31:30.358Z,-66
2023-12-29T12:34:04.503Z,-65
2023-12-29T12:36:31.174Z,-63
2023-12-29T12:38:59.211Z,-64
2023-12-29T12:41:27.663Z,-65
2023-12-29T12:44:15.906Z,-65
2023-12-29T12:46:48.569Z,-65
2023-12-29T12:49:16.475Z,-64
2023-12-29T12:51:44.162Z,-64
2023-12-29T12:54:13.289Z,-65
2023-12-29T12:56:43.392Z,-65
2023-12-29T12:59:10.165Z,-65
2023-12-29T13:01:39.109Z,-64
2023-12-29T13:04:07.284Z,-64
2023-12-29T13:06:35.627Z,-83
2023-12-29T13:09:09.597Z,-79
2023-12-29T13:11:36.831Z,-83
2023-12-29T13:14:06.206Z,-82
2023-12-29T13:16:34.432Z,-81
2023-12-29T13:21:40.660Z,-64
2023-12-29T13:24:07.519Z,-63
2023-12-29T13:26:34.417Z,-64
2023-12-29T13:29:01.206Z,-65
2023-12-29T13:31:27.999Z,-64
2023-12-29T13:34:02.837Z,-65
2023-12-29T13:36:55.695Z,-64
2023-12-29T13:39:41.523Z,-64
2023-12-29T13:42:11.969Z,-63
2023-12-29T13:44:41.407Z,-64
2023-12-29T13:47:09.368Z,-63
2023-12-29T13:49:37.977Z,-63
2023-12-29T13:52:05.791Z,-64
2023-12-29T13:54:44.594Z,-64
2023-12-29T13:57:11.991Z,-64
2023-12-29T13:59:38.896Z,-65
2023-12-29T14:02:28.236Z,-64
2023-12-29T14:05:12.712Z,-65
2023-12-29T14:07:47.350Z,-64
2023-12-29T14:10:15.175Z,-65
2023-12-29T14:12:42.335Z,-65
2023-12-29T14:15:09.463Z,-64
2023-12-29T14:17:36.963Z,-65
2023-12-29T14:20:07.900Z,-68
2023-12-29T14:22:35.177Z,-67
2023-12-29T14:25:06.985Z,-67
2023-12-29T14:27:33.679Z,-67
2023-12-29T14:30:01.849Z,-67
2023-12-29T14:32:31.547Z,-67
2023-12-29T14:34:58.330Z,-67
2023-12-29T14:37:25.041Z,-67
2023-12-29T14:39:52.500Z,-67
2023-12-29T14:42:19.994Z,-67
2023-12-29T14:44:48.234Z,-69
2023-12-29T14:47:17.617Z,-65
2023-12-29T14:49:44.338Z,-64
2023-12-29T14:52:11.214Z,-65
2023-12-29T14:54:39.514Z,-65
2023-12-29T14:57:11.441Z,-64
2023-12-29T14:59:42.161Z,-65
2023-12-29T15:02:09.096Z,-64
2023-12-29T15:04:36.414Z,-65
2023-12-29T15:07:04.222Z,-64
2023-12-29T15:09:35.175Z,-64
2023-12-29T15:12:01.804Z,-66
2023-12-29T15:14:28.496Z,-65
2023-12-29T15:16:55.109Z,-65
2023-12-29T15:19:22.492Z,-64
2023-12-29T15:21:49.373Z,-64
2023-12-29T15:24:16.434Z,-64
2023-12-29T15:26:43.048Z,-65
2023-12-29T15:29:09.636Z,-64
2023-12-29T15:31:36.424Z,-64
2023-12-29T15:34:03.193Z,-64
2023-12-29T15:36:29.917Z,-65
2023-12-29T15:38:56.652Z,-64
2023-12-29T15:41:23.473Z,-65
2023-12-29T15:43:50.988Z,-65
2023-12-29T15:46:19.156Z,-65
2023-12-29T15:48:46.163Z,-64
2023-12-29T15:51:13.760Z,-65
2023-12-29T15:53:41.360Z,-65
2023-12-29T15:56:08.867Z,-65
2023-12-29T15:58:35.906Z,-65
2023-12-29T16:01:02.664Z,-65
2023-12-29T16:03:33.410Z,-65
2023-12-29T16:06:02.350Z,-65
2023-12-29T16:08:32.526Z,-64
2023-12-29T16:10:59.513Z,-65
2023-12-29T16:13:26.082Z,-65
2023-12-29T16:15:53.078Z,-65
2023-12-29T16:18:20.465Z,-64
2023-12-29T16:20:47.094Z,-64
2023-12-29T16:23:14.205Z,-64
2023-12-29T16:25:41.172Z,-64
2023-12-29T16:28:07.943Z,-65
2023-12-29T16:30:34.803Z,-63
2023-12-29T16:33:01.770Z,-65
2023-12-29T16:35:28.684Z,-65
2023-12-29T16:37:55.369Z,-65
2023-12-29T16:40:22.079Z,-65
2023-12-29T16:42:48.758Z,-64
2023-12-29T16:45:15.420Z,-64
2023-12-29T16:47:43.540Z,-65
2023-12-29T16:50:10.304Z,-65
2023-12-29T16:52:36.930Z,-65
2023-12-29T16:55:03.894Z,-65
2023-12-29T16:57:31.197Z,-65
2023-12-29T16:59:57.897Z,-65
2023-12-29T17:02:24.489Z,-64
2023-12-29T17:04:51.382Z,-65
2023-12-29T17:07:18.101Z,-64
2023-12-29T17:09:45.330Z,-65
2023-12-29T17:12:12.144Z,-65
2023-12-29T17:14:40.002Z,-64
2023-12-29T17:17:06.723Z,-64
2023-12-29T17:19:33.499Z,-64
2023-12-29T17:22:02.840Z,-64
2023-12-29T17:24:29.626Z,-64
2023-12-29T17:26:56.245Z,-64
2023-12-29T17:29:22.857Z,-65
2023-12-29T17:31:50.600Z,-65
2023-12-29T17:34:17.249Z,-64
2023-12-29T17:36:45.652Z,-63
2023-12-29T17:39:12.377Z,-65
2023-12-29T17:41:39.009Z,-65
2023-12-29T17:44:06.205Z,-65
2023-12-29T17:46:32.884Z,-65
2023-12-29T17:48:59.553Z,-65
2023-12-29T17:51:29.882Z,-65
2023-12-29T17:53:56.730Z,-64
2023-12-29T17:56:23.497Z,-65
2023-12-29T17:58:50.217Z,-65
2023-12-29T18:01:17.169Z,-64
2023-12-29T18:03:44.181Z,-65
2023-12-29T18:06:13.981Z,-64
2023-12-29T18:08:43.904Z,-66
2023-12-29T18:11:11.001Z,-65
2023-12-29T18:13:37.753Z,-65
2023-12-29T18:16:10.994Z,-64
2023-12-29T18:18:40.235Z,-65
2023-12-29T18:21:08.122Z,-64
2023-12-29T18:23:35.014Z,-65
2023-12-29T18:26:04.852Z,-64
2023-12-29T18:28:32.346Z,-64
2023-12-29T18:30:59.276Z,-65
2023-12-29T18:33:26.207Z,-65
2023-12-29T18:35:55.979Z,-66
2023-12-29T18:38:22.610Z,-65
2023-12-29T18:40:49.295Z,-65
2023-12-29T18:43:15.891Z,-64
2023-12-29T18:45:44.698Z,-65
2023-12-29T18:48:11.655Z,-65
2023-12-29T18:50:38.644Z,-64
2023-12-29T18:53:05.676Z,-65
2023-12-29T18:55:32.613Z,-65
2023-12-29T18:57:59.342Z,-65
2023-12-29T19:00:25.979Z,-64
2023-12-29T19:02:52.816Z,-64
2023-12-29T19:05:19.611Z,-65
2023-12-29T19:07:47.008Z,-64
2023-12-29T19:10:15.301Z,-64
2023-12-29T19:12:41.986Z,-65
2023-12-29T19:15:09.224Z,-65
2023-12-29T19:17:35.935Z,-65
2023-12-29T19:20:03.796Z,-65
2023-12-29T19:22:31.642Z,-65
2023-12-29T19:24:58.521Z,-66
2023-12-29T19:27:25.189Z,-65
2023-12-29T19:29:51.832Z,-64
2023-12-29T19:32:20.288Z,-65
2023-12-29T19:34:47.273Z,-65
2023-12-29T19:37:13.973Z,-65
2023-12-29T19:39:44.816Z,-64
2023-12-29T19:42:11.471Z,-64
2023-12-29T19:44:38.033Z,-64
2023-12-29T19:47:05.186Z,-64
2023-12-29T19:49:31.876Z,-65
2023-12-29T19:51:59.398Z,-64
2023-12-29T19:54:27.587Z,-64
2023-12-29T19:56:54.308Z,-64
2023-12-29T19:59:20.987Z,-65
2023-12-29T20:01:48.857Z,-66
2023-12-29T20:04:16.244Z,-64
2023-12-29T20:06:43.464Z,-65
2023-12-29T20:09:10.526Z,-66
2023-12-29T20:11:43.880Z,-65
2023-12-29T20:14:13.080Z,-66
2023-12-29T20:16:39.853Z,-65
2023-12-29T20:19:06.579Z,-65
2023-12-29T20:21:33.848Z,-65
2023-12-29T20:24:00.558Z,-66
2023-12-29T20:26:28.411Z,-65
2023-12-29T20:28:56.576Z,-65
2023-12-29T20:31:33.083Z,-65
2023-12-29T20:34:00.109Z,-66
2023-12-29T20:36:28.075Z,-69
2023-12-29T20:39:00.191Z,-65
2023-12-29T20:41:27.316Z,-65
2023-12-29T20:43:55.430Z,-65
2023-12-29T20:46:23.207Z,-64
2023-12-29T20:48:51.016Z,-65
2023-12-29T20:51:21.512Z,-64
2023-12-29T20:53:50.173Z,-66
2023-12-29T20:56:20.267Z,-65
2023-12-29T20:58:51.472Z,-65
2023-12-29T21:01:20.903Z,-64
2023-12-29T21:03:47.716Z,-65
2023-12-29T21:06:20.464Z,-65
2023-12-29T21:08:47.613Z,-64
2023-12-29T21:11:22.027Z,-64
2023-12-29T21:13:49.037Z,-64
2023-12-29T21:16:17.873Z,-67
2023-12-29T21:18:45.826Z,-69
2023-12-29T21:21:12.808Z,-67
2023-12-29T21:23:39.498Z,-69
2023-12-29T21:26:06.210Z,-67
2023-12-29T21:28:32.962Z,-68
2023-12-29T21:31:00.094Z,-69
2023-12-29T21:33:27.484Z,-67
2023-12-29T21:35:54.568Z,-67
2023-12-29T21:38:21.311Z,-67
2023-12-29T21:40:48.363Z,-69
2023-12-29T21:43:15.488Z,-68
2023-12-29T21:45:42.516Z,-67
2023-12-29T21:48:10.537Z,-67
2023-12-29T21:50:38.002Z,-67
2023-12-29T21:53:06.861Z,-66
2023-12-29T21:55:33.910Z,-67
2023-12-29T21:58:02.141Z,-67
2023-12-29T22:00:28.914Z,-67
2023-12-29T22:02:57.098Z,-67
2023-12-29T22:05:23.794Z,-67
2023-12-29T22:07:50.472Z,-68
2023-12-29T22:10:17.331Z,-67
2023-12-29T22:12:44.311Z,-68
2023-12-29T22:15:11.683Z,-67
2023-12-29T22:17:38.379Z,-68
2023-12-29T22:20:05.600Z,-68
2023-12-29T22:22:32.325Z,-68
2023-12-29T22:24:59.095Z,-68
2023-12-29T22:27:25.905Z,-68
2023-12-29T22:29:52.506Z,-68
2023-12-29T22:32:19.709Z,-67
2023-12-29T22:34:46.633Z,-67
2023-12-29T22:37:13.602Z,-67
2023-12-29T22:39:40.567Z,-67
2023-12-29T22:42:07.273Z,-67
2023-12-29T22:44:34.281Z,-67
2023-12-29T22:47:01.188Z,-67
2023-12-29T22:49:27.868Z,-66
2023-12-29T22:51:54.527Z,-67
2023-12-29T22:54:21.503Z,-67
2023-12-29T22:56:48.169Z,-67
2023-12-29T22:59:15.228Z,-69
2023-12-29T23:01:42.005Z,-69
2023-12-29T23:04:08.822Z,-64
2023-12-29T23:06:35.583Z,-66
2023-12-29T23:09:02.214Z,-66
2023-12-29T23:11:28.920Z,-68
2023-12-29T23:13:55.606Z,-65
2023-12-29T23:16:22.318Z,-67
2023-12-29T23:18:50.487Z,-65
2023-12-29T23:21:17.518Z,-67
2023-12-29T23:23:44.111Z,-67
2023-12-29T23:26:10.669Z,-67
2023-12-29T23:28:37.800Z,-64
2023-12-29T23:31:04.773Z,-66
2023-12-29T23:33:31.500Z,-65
2023-12-29T23:35:58.298Z,-64
2023-12-29T23:38:24.987Z,-67
2023-12-29T23:40:51.645Z,-65
2023-12-29T23:43:18.725Z,-65
2023-12-29T23:45:45.450Z,-66
2023-12-29T23:48:12.407Z,-66
2023-12-29T23:50:39.194Z,-65
2023-12-29T23:53:05.899Z,-64
2023-12-29T23:55:32.765Z,-64
2023-12-29T23:57:59.392Z,-65
